Time;durP1;ratioP1;P1;durP2;ratioP2;P2;SDS_P1;SDS_P2;PMS_P1;PMS_P2;Temp;Humidity;BMP_temperature;BMP_pressure;BME280_temperature;BME280_humidity;BME280_pressure;Samples;Min_cycle;Max_cycle;Signal;HPM_P1;HPM_P2
2022/01/26 00:06:27;;;;;;;66.68;26.63;;;;;;;0.74;100.00;101751.31;5035513;28;20171;-71
2022/01/26 00:08:52;;;;;;;71.30;28.67;;;;;;;0.64;100.00;101749.19;5050714;22;20490;-75
2022/01/26 00:11:18;;;;;;;63.08;26.95;;;;;;;0.74;100.00;101747.78;5034704;28;20084;-74
2022/01/26 00:13:43;;;;;;;71.15;27.05;;;;;;;0.78;100.00;101749.66;5035134;28;20100;-74
2022/01/26 00:16:16;;;;;;;72.32;27.50;;;;;;;0.68;100.00;101747.56;5035095;28;20413;-75
2022/01/26 00:18:42;;;;;;;73.15;27.20;;;;;;;0.69;100.00;101747.63;5034794;28;20478;-75
2022/01/26 00:21:17;;;;;;;66.00;25.83;;;;;;;0.81;100.00;101751.50;5034352;28;20083;-75
2022/01/26 00:24:08;;;;;;;69.68;27.33;;;;;;;0.70;100.00;101733.63;5033284;28;20029;-75
2022/01/26 00:26:58;;;;;;;70.18;27.00;;;;;;;0.72;100.00;101734.56;5034518;28;20025;-75
2022/01/26 00:29:19;;;;;;;70.65;26.05;;;;;;;0.74;100.00;101735.53;5034395;28;20458;-75
2022/01/26 00:40:24;;;;;;;68.53;24.85;;;;;;;0.66;100.00;101714.22;5034487;28;20036;-74
2022/01/26 00:42:53;;;;;;;71.13;24.77;;;;;;;0.63;100.00;101721.09;5034415;28;20017;-74
2022/01/26 00:45:22;;;;;;;67.30;25.38;;;;;;;0.64;100.00;101718.56;5034228;28;20431;-75
2022/01/26 00:47:48;;;;;;;72.80;26.27;;;;;;;0.73;100.00;101728.47;5034126;28;20121;-75
2022/01/26 00:50:15;;;;;;;68.07;25.05;;;;;;;0.74;100.00;101718.84;5032665;28;20478;-75
2022/01/26 00:52:43;;;;;;;65.00;25.13;;;;;;;0.66;100.00;101715.97;5034116;28;20018;-74
2022/01/26 00:55:17;;;;;;;64.93;24.17;;;;;;;0.75;100.00;101721.53;5034299;28;20022;-75
2022/01/26 00:57:43;;;;;;;71.18;25.58;;;;;;;0.67;100.00;101720.38;5033915;28;20108;-75
2022/01/26 01:00:19;;;;;;;69.88;25.60;;;;;;;0.61;100.00;101722.78;5034081;28;20025;-74
2022/01/26 01:02:44;;;;;;;68.25;24.15;;;;;;;0.63;100.00;101722.00;5033626;28;20052;-74
2022/01/26 01:05:20;;;;;;;67.35;24.42;;;;;;;0.54;100.00;101722.56;5033788;28;20390;-75
2022/01/26 01:07:49;;;;;;;62.95;23.80;;;;;;;0.91;100.00;101719.41;5033738;28;20036;-75
2022/01/26 01:10:17;;;;;;;72.35;25.98;;;;;;;0.76;100.00;101723.31;5033243;28;20044;-74
2022/01/26 01:12:44;;;;;;;64.78;24.23;;;;;;;0.57;100.00;101724.41;5033206;28;20542;-74
2022/01/26 01:15:11;;;;;;;68.07;24.27;;;;;;;0.64;100.00;101728.16;5033482;28;20036;-75
2022/01/26 01:17:42;;;;;;;66.20;25.02;;;;;;;0.53;100.00;101731.31;5033752;28;20036;-75
2022/01/26 01:20:40;;;;;;;69.85;24.20;;;;;;;0.60;100.00;101728.88;5033369;28;20031;-75
2022/01/26 01:26:01;;;;;;;68.57;24.90;;;;;;;0.42;100.00;101732.66;5033504;28;20041;-75
2022/01/26 01:28:30;;;;;;;73.25;23.90;;;;;;;0.41;100.00;101725.63;5033038;28;20025;-75
2022/01/26 01:31:01;;;;;;;70.18;23.95;;;;;;;0.35;100.00;101721.03;5033534;28;20458;-74
2022/01/26 01:33:32;;;;;;;61.22;22.67;;;;;;;0.37;100.00;101713.19;5033432;28;20461;-74
2022/01/26 01:35:59;;;;;;;65.03;22.67;;;;;;;0.40;100.00;101715.94;5033645;28;20032;-75
2022/01/26 01:38:27;;;;;;;64.60;24.05;;;;;;;0.50;100.00;101704.91;5032090;28;20022;-75
2022/01/26 01:40:53;;;;;;;62.50;23.23;;;;;;;0.40;100.00;101702.81;5032977;28;20121;-75
2022/01/26 01:43:21;;;;;;;74.03;24.42;;;;;;;0.42;100.00;101701.13;5031510;28;20478;-75
2022/01/26 01:45:50;;;;;;;63.72;23.83;;;;;;;0.45;100.00;101706.50;5031444;28;20104;-75
2022/01/26 01:48:22;;;;;;;70.60;26.23;;;;;;;0.39;100.00;101707.16;5033073;28;20029;-74
2022/01/26 01:50:50;;;;;;;78.57;26.55;;;;;;;0.46;100.00;101708.28;5033253;28;20482;-75
2022/01/26 01:53:18;;;;;;;76.50;25.85;;;;;;;0.36;100.00;101701.78;5032677;28;20497;-75
2022/01/26 01:55:50;;;;;;;80.88;26.85;;;;;;;0.47;100.00;101694.28;5032654;28;20021;-75
2022/01/26 01:58:19;;;;;;;79.53;26.15;;;;;;;0.37;100.00;101685.19;5032913;28;20425;-75
2022/01/26 02:00:45;;;;;;;69.72;24.75;;;;;;;0.60;100.00;101685.09;5032848;28;20032;-75
2022/01/26 02:03:10;;;;;;;70.90;25.08;;;;;;;0.39;100.00;101675.63;5033253;28;20018;-75
2022/01/26 02:05:36;;;;;;;80.30;27.55;;;;;;;0.22;100.00;101685.56;5030926;28;20037;-75
2022/01/26 02:08:03;;;;;;;78.65;27.13;;;;;;;0.23;100.00;101697.84;5032666;28;20067;-75
2022/01/26 02:10:30;;;;;;;79.45;27.30;;;;;;;0.35;100.00;101693.84;5033419;28;20435;-75
2022/01/26 02:12:58;;;;;;;77.82;26.92;;;;;;;0.38;100.00;101700.13;5033001;28;20049;-75
2022/01/26 02:15:31;;;;;;;74.65;26.70;;;;;;;0.37;100.00;101687.81;5031465;28;20025;-75
2022/01/26 02:51:12;;;;;;;72.22;24.10;;;;;;;0.17;100.00;101642.47;5032961;28;20392;-75
2022/01/26 02:59:54;;;;;;;82.10;25.70;;;;;;;0.14;100.00;101626.56;5030083;28;20494;-75
2022/01/26 03:02:06;;;;;;;81.28;26.65;;;;;;;0.20;100.00;101616.31;5029595;28;20034;-75
2022/01/26 03:04:40;;;;;;;90.35;27.50;;;;;;;0.24;100.00;101607.66;5030719;28;20557;-75
2022/01/26 03:10:05;;;;;;;92.40;28.13;;;;;;;0.24;100.00;101586.66;5031289;28;20041;-75
2022/01/26 03:12:46;;;;;;;87.65;27.92;;;;;;;0.22;100.00;101594.50;5032471;28;20097;-75
2022/01/26 03:15:14;;;;;;;82.22;26.95;;;;;;;0.33;100.00;101591.34;5032432;28;20030;-75
2022/01/26 03:18:07;;;;;;;87.88;28.15;;;;;;;0.22;100.00;101583.09;5033967;28;20040;-75
2022/01/26 03:20:32;;;;;;;86.60;28.42;;;;;;;0.26;100.00;101590.22;5035249;28;20033;-75
2022/01/26 03:28:39;;;;;;;83.63;26.83;;;;;;;0.29;100.00;101589.44;5035828;28;20083;-76
2022/01/26 03:36:14;;;;;;;95.22;29.27;;;;;;;0.14;100.00;101601.22;5035528;28;20029;-74
2022/01/26 03:38:49;;;;;;;95.25;29.45;;;;;;;0.27;100.00;101604.25;5035178;28;20036;-75
2022/01/26 03:41:34;;;;;;;93.70;29.20;;;;;;;0.39;100.00;101594.16;5033721;28;20087;-74
2022/01/26 03:44:00;;;;;;;95.00;28.52;;;;;;;0.16;100.00;101603.88;5035124;28;20037;-74
2022/01/26 03:46:25;;;;;;;95.65;28.00;;;;;;;0.22;100.00;101604.09;5034985;28;20391;-74
2022/01/26 03:48:50;;;;;;;95.38;28.10;;;;;;;0.31;100.00;101604.41;5034909;28;20536;-75
2022/01/26 03:51:16;;;;;;;96.63;28.38;;;;;;;0.33;100.00;101600.13;5034865;28;20017;-75
2022/01/26 03:53:41;;;;;;;86.57;28.17;;;;;;;0.29;100.00;101595.59;5034838;28;20029;-74
2022/01/26 03:56:07;;;;;;;99.45;29.35;;;;;;;0.22;100.00;101602.38;5035051;28;20479;-75
2022/01/26 03:58:32;;;;;;;98.80;28.73;;;;;;;0.29;100.00;101613.06;5033858;28;20482;-75
2022/01/26 04:00:57;;;;;;;91.15;27.73;;;;;;;0.24;100.00;101617.28;5035481;28;20025;-75
2022/01/26 04:03:23;;;;;;;96.18;30.05;;;;;;;0.20;100.00;101616.31;5036215;28;20033;-74
2022/01/26 04:05:48;;;;;;;103.82;30.65;;;;;;;0.19;100.00;101617.13;5035550;28;20414;-75
2022/01/26 04:08:19;;;;;;;97.07;28.98;;;;;;;0.20;100.00;101613.66;5034646;28;20032;-75
2022/01/26 04:13:13;;;;;;;104.18;30.90;;;;;;;0.25;100.00;101614.72;5035192;28;20029;-75
2022/01/26 04:15:38;;;;;;;93.93;29.05;;;;;;;0.27;100.00;101617.38;5034553;28;20127;-75
2022/01/26 04:18:07;;;;;;;95.95;29.77;;;;;;;0.33;100.00;101620.25;5033233;28;20033;-74
2022/01/26 04:20:38;;;;;;;106.13;30.65;;;;;;;0.30;100.00;101615.78;5034649;28;20096;-75
2022/01/26 04:23:30;;;;;;;98.18;29.88;;;;;;;0.25;100.00;101608.56;5034664;28;20033;-75
2022/01/26 04:25:52;;;;;;;93.20;29.58;;;;;;;0.35;100.00;101594.00;5034526;28;20033;-75
2022/01/26 04:28:24;;;;;;;96.05;28.55;;;;;;;0.43;100.00;101582.03;5032695;28;20112;-76
2022/01/26 04:30:50;;;;;;;102.53;31.20;;;;;;;0.22;100.00;101589.25;5034853;28;20079;-76
2022/01/26 04:33:16;;;;;;;102.72;31.35;;;;;;;0.22;100.00;101577.84;5033119;28;20013;-76
2022/01/26 04:35:44;;;;;;;92.05;29.67;;;;;;;0.35;100.00;101573.88;5034454;28;20053;-76
2022/01/26 04:40:43;;;;;;;97.65;30.88;;;;;;;0.26;100.00;101610.38;5034689;28;20026;-75
2022/01/26 04:43:16;;;;;;;96.03;29.55;;;;;;;0.31;100.00;101598.28;5032794;28;20435;-76
2022/01/26 04:45:42;;;;;;;97.55;31.30;;;;;;;0.21;100.00;101587.44;5032671;28;20036;-76
2022/01/26 04:48:07;;;;;;;99.63;30.08;;;;;;;0.30;100.00;101596.47;5032798;28;20029;-76
2022/01/26 04:50:32;;;;;;;89.97;28.27;;;;;;;0.39;100.00;101615.19;5033824;28;20033;-76
2022/01/26 04:52:57;;;;;;;94.75;30.52;;;;;;;0.37;100.00;101611.59;5032814;28;20104;-76
2022/01/26 04:55:23;;;;;;;101.97;29.42;;;;;;;0.38;100.00;101613.41;5033938;28;20390;-76
2022/01/26 04:57:48;;;;;;;88.53;29.83;;;;;;;0.39;100.00;101611.66;5032343;28;20067;-76
2022/01/26 05:00:14;;;;;;;99.68;30.50;;;;;;;0.35;100.00;101615.03;5032202;28;20018;-76
2022/01/26 05:02:39;;;;;;;83.95;28.45;;;;;;;0.31;100.00;101607.03;5033496;28;20031;-76
2022/01/26 05:05:04;;;;;;;94.97;29.27;;;;;;;0.30;100.00;101613.16;5032246;28;20486;-76
2022/01/26 05:07:30;;;;;;;93.65;28.55;;;;;;;0.31;100.00;101617.53;5033544;28;20033;-76
2022/01/26 05:09:55;;;;;;;105.47;31.98;;;;;;;0.18;100.00;101618.00;5033609;28;20025;-76
2022/01/26 05:12:20;;;;;;;90.82;29.10;;;;;;;0.19;100.00;101614.50;5033501;28;20335;-76
2022/01/26 05:14:48;;;;;;;96.22;29.80;;;;;;;0.27;100.00;101613.03;5033491;28;20029;-76
2022/01/26 05:17:14;;;;;;;93.57;29.27;;;;;;;0.35;100.00;101612.41;5033448;28;20029;-75
2022/01/26 05:19:39;;;;;;;98.85;30.13;;;;;;;0.37;100.00;101613.34;5034015;28;20120;-75
2022/01/26 05:22:05;;;;;;;102.07;31.27;;;;;;;0.31;100.00;101593.91;5031993;28;20526;-76
2022/01/26 05:24:31;;;;;;;94.35;29.30;;;;;;;0.33;100.00;101602.75;5033483;28;20067;-75
2022/01/26 05:26:57;;;;;;;102.38;31.27;;;;;;;0.23;100.00;101611.16;5033338;28;20033;-75
2022/01/26 05:29:22;;;;;;;101.05;30.95;;;;;;;0.15;100.00;101610.00;5033377;28;20120;-75
2022/01/26 05:31:48;;;;;;;114.45;32.35;;;;;;;0.11;100.00;101606.34;5031891;28;20200;-74
2022/01/26 05:34:13;;;;;;;108.70;31.25;;;;;;;0.17;100.00;101600.41;5033193;28;20025;-74
2022/01/26 05:36:39;;;;;;;106.10;33.20;;;;;;;0.11;100.00;101582.72;5033144;28;20440;-74
2022/01/26 05:39:04;;;;;;;116.47;35.80;;;;;;;0.05;100.00;101575.50;5032506;28;20032;-74
2022/01/26 05:41:29;;;;;;;115.93;34.30;;;;;;;0.13;100.00;101588.03;5032782;28;20028;-74
2022/01/26 05:43:55;;;;;;;103.47;33.83;;;;;;;0.09;100.00;101574.78;5032835;28;20398;-74
2022/01/26 05:46:28;;;;;;;120.03;35.55;;;;;;;0.03;100.00;101571.94;5033423;28;20441;-74
2022/01/26 05:48:55;;;;;;;122.57;35.65;;;;;;;0.16;100.00;101573.25;5032954;28;20052;-74
2022/01/26 05:51:20;;;;;;;117.40;33.70;;;;;;;0.14;100.00;101558.28;5032961;28;20044;-74
2022/01/26 05:53:46;;;;;;;111.97;34.13;;;;;;;-0.02;100.00;101552.50;5032930;28;20029;-74
2022/01/26 05:56:11;;;;;;;104.72;32.38;;;;;;;0.03;100.00;101545.69;5031975;28;20057;-74
2022/01/26 05:58:36;;;;;;;112.38;34.35;;;;;;;0.05;100.00;101540.50;5032771;28;20049;-74
2022/01/26 06:01:04;;;;;;;117.22;32.97;;;;;;;0.04;100.00;101536.97;5032446;28;20076;-74
2022/01/26 06:03:29;;;;;;;111.72;35.10;;;;;;;0.01;100.00;101525.44;5031359;28;20029;-74
2022/01/26 06:05:55;;;;;;;102.65;33.10;;;;;;;0.08;100.00;101533.59;5033320;28;20112;-74
2022/01/26 06:14:26;;;;;;;112.85;33.35;;;;;;;0.09;100.00;101556.41;5039718;22;20057;-69
2022/01/26 06:16:52;;;;;;;121.13;35.28;;;;;;;-0.02;100.00;101557.75;5032794;28;20025;-70
2022/01/26 06:19:17;;;;;;;111.30;36.00;;;;;;;-0.10;100.00;101559.25;5032548;28;20022;-70
2022/01/26 06:21:42;;;;;;;104.10;32.22;;;;;;;-0.02;100.00;101558.66;5031642;28;20489;-70
2022/01/26 06:24:08;;;;;;;108.95;32.47;;;;;;;0.07;100.00;101571.22;5032775;28;20028;-70
2022/01/26 06:26:33;;;;;;;118.80;34.72;;;;;;;-0.08;100.00;101568.06;5031342;28;20501;-69
2022/01/26 06:28:59;;;;;;;108.88;33.30;;;;;;;-0.05;100.00;101562.94;5031297;28;20021;-69
2022/01/26 06:31:27;;;;;;;125.82;36.75;;;;;;;-0.16;100.00;101555.56;5032470;28;20386;-70
2022/01/26 06:33:52;;;;;;;128.05;37.92;;;;;;;-0.17;100.00;101559.03;5032467;28;20021;-69
2022/01/26 06:36:18;;;;;;;125.18;37.80;;;;;;;-0.09;100.00;101571.50;5031541;28;20304;-70
2022/01/26 06:38:46;;;;;;;117.05;33.45;;;;;;;-0.14;100.00;101579.25;5030989;28;20509;-70
2022/01/26 06:41:12;;;;;;;130.73;35.83;;;;;;;-0.07;100.00;101585.59;5032241;28;20026;-72
2022/01/26 06:43:48;;;;;;;124.95;35.95;;;;;;;-0.19;100.00;101586.97;5032418;28;20052;-72
2022/01/26 06:46:22;;;;;;;118.68;34.95;;;;;;;-0.08;100.00;101583.81;5032327;28;20037;-72
2022/01/26 06:49:02;;;;;;;117.85;34.13;;;;;;;-0.23;100.00;101570.19;5032156;28;20037;-72
2022/01/26 06:51:27;;;;;;;120.25;33.80;;;;;;;-0.18;100.00;101558.97;5033911;28;20084;-72
2022/01/26 06:53:53;;;;;;;128.15;34.15;;;;;;;-0.17;100.00;101555.50;5035941;28;20029;-73
2022/01/26 06:56:18;;;;;;;137.20;34.97;;;;;;;-0.15;100.00;101549.47;5036029;28;20135;-72
2022/01/26 06:58:43;;;;;;;115.05;33.08;;;;;;;-0.14;100.00;101546.00;5035771;28;20029;-72
2022/01/26 07:01:09;;;;;;;122.97;34.83;;;;;;;-0.19;100.00;101549.31;5035699;28;20071;-73
2022/01/26 07:03:34;;;;;;;122.28;34.58;;;;;;;-0.26;100.00;101543.81;5036234;28;20109;-73
2022/01/26 07:05:59;;;;;;;128.65;33.95;;;;;;;-0.24;100.00;101549.16;5034899;28;20025;-72
2022/01/26 07:08:24;;;;;;;133.70;37.42;;;;;;;-0.31;100.00;101555.03;5036133;28;20075;-72
2022/01/26 07:10:51;;;;;;;119.05;33.35;;;;;;;-0.32;100.00;101558.47;5036268;28;20025;-70
2022/01/26 07:13:17;;;;;;;133.75;36.15;;;;;;;-0.33;100.00;101561.94;5036040;28;20032;-70
2022/01/26 07:21:26;;;;;;;123.05;33.30;;;;;;;-0.36;100.00;101563.59;5036150;28;20041;-73
2022/01/26 07:23:52;;;;;;;112.53;31.98;;;;;;;-0.42;100.00;101565.13;5034644;28;20140;-73
2022/01/26 07:26:18;;;;;;;117.13;33.47;;;;;;;-0.26;100.00;101553.47;5035858;28;20401;-72
2022/01/26 07:28:44;;;;;;;114.30;33.65;;;;;;;-0.37;100.00;101551.34;5035848;28;20032;-72
2022/01/26 07:31:10;;;;;;;115.70;33.60;;;;;;;-0.43;100.00;101548.47;5035758;28;20021;-73
2022/01/26 07:33:37;;;;;;;108.90;31.38;;;;;;;-0.37;100.00;101561.84;5035749;28;20028;-72
2022/01/26 07:36:02;;;;;;;107.60;33.88;;;;;;;-0.38;100.00;101567.00;5035673;28;20061;-72
2022/01/26 07:38:27;;;;;;;115.20;33.35;;;;;;;-0.42;100.00;101562.50;5035622;28;20413;-73
2022/01/26 07:40:54;;;;;;;116.13;34.70;;;;;;;-0.44;100.00;101562.47;5035493;28;20029;-73
2022/01/26 07:43:19;;;;;;;109.65;32.03;;;;;;;-0.39;100.00;101568.78;5035494;28;20029;-72
2022/01/26 07:45:44;;;;;;;101.55;30.50;;;;;;;-0.44;100.00;101575.59;5035756;28;20037;-72
2022/01/26 07:48:10;;;;;;;115.75;33.42;;;;;;;-0.50;100.00;101591.09;5035431;28;20025;-73
2022/01/26 07:50:35;;;;;;;116.85;34.42;;;;;;;-0.49;100.00;101582.41;5035301;28;20030;-72
2022/01/26 07:53:02;;;;;;;114.60;32.88;;;;;;;-0.50;100.00;101592.00;5034050;28;20104;-73
2022/01/26 07:55:28;;;;;;;117.47;33.70;;;;;;;-0.49;100.00;101587.66;5035552;28;20531;-72
2022/01/26 07:57:55;;;;;;;112.47;33.88;;;;;;;-0.48;100.00;101574.56;5034010;28;20033;-72
2022/01/26 08:00:21;;;;;;;112.50;32.95;;;;;;;-0.48;100.00;101557.91;5033855;28;20501;-73
2022/01/26 08:02:46;;;;;;;110.57;31.73;;;;;;;-0.47;100.00;101568.50;5034250;28;20022;-73
2022/01/26 08:05:13;;;;;;;116.97;33.88;;;;;;;-0.44;100.00;101586.09;5035158;28;20044;-72
2022/01/26 08:07:39;;;;;;;129.13;37.53;;;;;;;-0.47;100.00;101583.34;5035169;28;20030;-72
2022/01/26 08:10:06;;;;;;;118.90;35.20;;;;;;;-0.40;100.00;101582.72;5035050;28;20063;-73
2022/01/26 08:12:32;;;;;;;118.47;35.47;;;;;;;-0.36;100.00;101588.97;5034761;28;20460;-73
2022/01/26 08:14:57;;;;;;;123.18;35.70;;;;;;;-0.30;100.00;101593.53;5034902;28;20060;-73
2022/01/26 08:17:22;;;;;;;119.78;34.88;;;;;;;-0.39;100.00;101600.25;5034885;28;20474;-73
2022/01/26 08:19:51;;;;;;;118.25;33.58;;;;;;;-0.41;100.00;101607.16;5034811;28;20125;-73
2022/01/26 08:22:19;;;;;;;115.45;34.58;;;;;;;-0.49;100.00;101603.38;5034642;28;20076;-73
2022/01/26 08:24:44;;;;;;;125.22;37.40;;;;;;;-0.47;100.00;101617.44;5034790;28;20021;-72
2022/01/26 08:27:12;;;;;;;112.03;33.63;;;;;;;-0.42;100.00;101615.91;5034712;28;20071;-72
2022/01/26 08:30:07;;;;;;;117.63;35.63;;;;;;;-0.47;100.00;101606.97;5034641;28;20100;-72
2022/01/26 08:32:24;;;;;;;120.45;36.88;;;;;;;-0.46;100.00;101609.63;5034136;28;20072;-73
2022/01/26 08:34:49;;;;;;;132.68;38.65;;;;;;;-0.49;100.00;101621.75;5034806;28;20026;-72
2022/01/26 08:37:14;;;;;;;120.97;35.42;;;;;;;-0.48;100.00;101610.41;5033220;28;20021;-73
2022/01/26 08:39:40;;;;;;;130.43;37.65;;;;;;;-0.45;100.00;101605.28;5034483;28;20029;-73
2022/01/26 08:42:06;;;;;;;130.68;36.72;;;;;;;-0.39;100.00;101610.78;5034338;28;20437;-73
2022/01/26 08:44:33;;;;;;;124.22;36.22;;;;;;;-0.43;100.00;101603.59;5034216;28;20478;-73
2022/01/26 08:46:58;;;;;;;125.72;37.38;;;;;;;-0.38;100.00;101590.63;5033138;28;20231;-73
2022/01/26 08:49:25;;;;;;;117.65;34.47;;;;;;;-0.35;100.00;101599.53;5033057;28;20139;-73
2022/01/26 08:51:51;;;;;;;136.93;39.33;;;;;;;-0.39;100.00;101610.78;5034194;28;20022;-73
2022/01/26 08:54:20;;;;;;;130.27;37.65;;;;;;;-0.36;100.00;101605.59;5034185;28;20028;-73
2022/01/26 08:56:46;;;;;;;126.63;36.63;;;;;;;-0.38;100.00;101607.28;5034169;28;20527;-73
2022/01/26 08:59:11;;;;;;;134.77;38.53;;;;;;;-0.43;100.00;101598.34;5032792;28;20112;-73
2022/01/26 09:01:36;;;;;;;128.13;38.72;;;;;;;-0.32;100.00;101608.34;5034285;28;20112;-73
2022/01/26 09:04:03;;;;;;;121.78;35.83;;;;;;;-0.33;100.00;101604.81;5034063;28;20493;-73
2022/01/26 09:06:28;;;;;;;142.23;39.17;;;;;;;-0.33;100.00;101585.56;5034154;28;20079;-74
2022/01/26 09:08:58;;;;;;;133.07;37.65;;;;;;;-0.25;100.00;101582.38;5033887;28;20110;-73
2022/01/26 09:11:23;;;;;;;130.68;39.28;;;;;;;-0.31;100.00;101591.78;5033883;28;20509;-74
2022/01/26 09:13:56;;;;;;;119.90;37.22;;;;;;;-0.24;100.00;101594.69;5032351;28;20029;-73
2022/01/26 09:16:24;;;;;;;133.88;39.33;;;;;;;-0.37;100.00;101585.47;5033811;28;20030;-73
2022/01/26 09:18:53;;;;;;;135.88;39.20;;;;;;;-0.36;100.00;101579.34;5033749;28;20075;-73
2022/01/26 09:21:21;;;;;;;136.35;40.08;;;;;;;-0.33;100.00;101573.31;5033515;28;20371;-73
2022/01/26 09:23:46;;;;;;;132.95;40.17;;;;;;;-0.27;100.00;101583.16;5033762;28;20165;-73
2022/01/26 09:26:12;;;;;;;118.22;36.20;;;;;;;-0.23;100.00;101569.28;5033602;28;20102;-73
2022/01/26 09:28:37;;;;;;;133.15;38.28;;;;;;;-0.33;100.00;101575.09;5033532;28;20104;-73
2022/01/26 09:31:03;;;;;;;123.63;36.10;;;;;;;-0.28;100.00;101565.59;5032216;28;20025;-73
2022/01/26 09:33:28;;;;;;;114.07;35.65;;;;;;;-0.21;100.00;101567.63;5033471;28;20021;-73
2022/01/26 09:35:53;;;;;;;125.25;36.38;;;;;;;-0.23;100.00;101570.19;5033511;28;20037;-73
2022/01/26 09:38:19;;;;;;;127.32;36.20;;;;;;;-0.29;100.00;101572.63;5032188;28;20025;-74
2022/01/26 09:40:48;;;;;;;127.95;37.22;;;;;;;-0.22;100.00;101576.34;5033299;28;20371;-73
2022/01/26 09:43:14;;;;;;;137.55;38.65;;;;;;;-0.28;100.00;101573.47;5033130;28;20508;-73
2022/01/26 09:45:40;;;;;;;127.60;37.63;;;;;;;-0.26;100.00;101579.72;5033544;28;20053;-74
2022/01/26 09:48:06;;;;;;;126.22;38.35;;;;;;;-0.28;100.00;101586.59;5033585;28;20032;-73
2022/01/26 09:50:33;;;;;;;129.25;34.97;;;;;;;-0.20;100.00;101595.66;5033384;28;20079;-74
2022/01/26 09:52:59;;;;;;;115.80;35.72;;;;;;;-0.10;100.00;101601.25;5033313;28;20075;-74
2022/01/26 09:55:25;;;;;;;129.57;37.45;;;;;;;-0.23;100.00;101603.41;5033237;28;20021;-73
2022/01/26 09:57:57;;;;;;;121.05;35.92;;;;;;;-0.15;100.00;101601.06;5033211;28;20478;-73
2022/01/26 10:00:23;;;;;;;116.65;35.47;;;;;;;-0.10;100.00;101593.38;5033142;28;20492;-73
2022/01/26 10:02:59;;;;;;;121.63;35.40;;;;;;;-0.12;100.00;101602.09;5033233;28;20100;-74
2022/01/26 10:05:25;;;;;;;140.20;37.70;;;;;;;-0.08;100.00;101596.94;5031877;28;20125;-73
2022/01/26 10:08:12;;;;;;;124.13;36.30;;;;;;;0.04;100.00;101594.75;5031815;28;20108;-73
2022/01/26 10:16:09;;;;;;;137.70;38.03;;;;;;;0.01;100.00;101606.88;5033510;28;20032;-74
2022/01/26 10:18:35;;;;;;;133.20;42.67;;;;;;;0.04;100.00;101626.28;5032980;28;20044;-73
2022/01/26 10:21:03;;;;;;;129.45;39.83;;;;;;;0.05;100.00;101637.69;5032875;28;20479;-74
2022/01/26 10:23:36;;;;;;;134.45;42.15;;;;;;;0.04;100.00;101636.78;5031611;28;20030;-73
2022/01/26 10:26:08;;;;;;;152.25;48.55;;;;;;;0.14;100.00;101631.84;5032807;28;20024;-73
2022/01/26 10:28:43;;;;;;;127.65;40.33;;;;;;;0.13;100.00;101620.44;5035639;28;20029;-73
2022/01/26 10:31:23;;;;;;;142.35;43.83;;;;;;;0.03;100.00;101600.84;5037085;28;20056;-74
2022/01/26 10:34:10;;;;;;;127.88;39.78;;;;;;;-0.07;100.00;101596.09;5037140;28;20025;-73
2022/01/26 10:36:40;;;;;;;143.77;41.80;;;;;;;0.02;100.00;101606.03;5037134;28;20025;-73
2022/01/26 10:39:11;;;;;;;143.05;43.53;;;;;;;-0.03;100.00;101603.25;5037084;28;20036;-73
2022/01/26 10:41:40;;;;;;;138.02;41.42;;;;;;;-0.08;100.00;101603.09;5036635;28;20025;-73
2022/01/26 10:44:06;;;;;;;132.13;41.60;;;;;;;-0.09;100.00;101597.78;5035425;28;20075;-73
2022/01/26 10:46:36;;;;;;;132.57;39.55;;;;;;;-0.12;100.00;101612.59;5036613;28;20477;-74
2022/01/26 10:49:29;;;;;;;142.05;42.85;;;;;;;-0.09;100.00;101611.81;5036617;28;20033;-73
2022/01/26 10:51:59;;;;;;;118.38;38.70;;;;;;;-0.05;100.00;101618.06;5036506;28;20018;-74
2022/01/26 10:54:37;;;;;;;142.75;39.78;;;;;;;-0.09;100.00;101619.69;5036709;28;20018;-73
2022/01/26 10:57:05;;;;;;;140.05;39.92;;;;;;;-0.08;100.00;101621.47;5035210;28;20021;-73
2022/01/26 10:59:32;;;;;;;142.77;40.38;;;;;;;-0.02;100.00;101605.03;5036339;28;20452;-73
2022/01/26 11:02:01;;;;;;;143.70;41.92;;;;;;;0.00;100.00;101598.13;5034876;28;20113;-73
2022/01/26 11:04:27;;;;;;;140.10;39.40;;;;;;;-0.01;100.00;101609.44;5036285;28;20043;-73
2022/01/26 11:06:53;;;;;;;141.60;40.53;;;;;;;-0.05;100.00;101604.94;5036501;28;20459;-73
2022/01/26 11:09:22;;;;;;;136.52;39.35;;;;;;;-0.06;100.00;101592.63;5034922;28;20033;-73
2022/01/26 11:11:59;;;;;;;142.20;43.85;;;;;;;0.03;100.00;101592.94;5036071;28;20021;-73
2022/01/26 11:14:25;;;;;;;136.90;42.00;;;;;;;-0.04;100.00;101590.94;5035906;28;20452;-73
2022/01/26 11:17:00;;;;;;;147.02;41.17;;;;;;;0.02;100.00;101601.69;5034895;28;20021;-73
2022/01/26 11:19:25;;;;;;;135.02;40.58;;;;;;;0.13;100.00;101609.06;5036321;28;20029;-73
2022/01/26 11:21:51;;;;;;;151.45;43.78;;;;;;;0.12;100.00;101612.50;5035823;28;20076;-73
2022/01/26 11:24:24;;;;;;;141.75;42.35;;;;;;;0.08;100.00;101615.00;5035873;28;20021;-73
2022/01/26 11:27:03;;;;;;;143.48;40.72;;;;;;;0.08;100.00;101596.63;5035866;28;20398;-71
2022/01/26 11:29:33;;;;;;;161.23;43.72;;;;;;;0.03;100.00;101608.72;5035777;28;20080;-70
2022/01/26 11:32:13;;;;;;;135.75;41.65;;;;;;;0.07;100.00;101609.72;5035686;28;20482;-71
2022/01/26 11:34:40;;;;;;;145.18;40.35;;;;;;;0.07;100.00;101605.38;5035767;28;20022;-70
2022/01/26 11:37:15;;;;;;;168.82;46.67;;;;;;;0.15;100.00;101612.63;5033617;28;20040;-70
2022/01/26 11:45:08;;;;;;;143.20;44.35;;;;;;;0.23;100.00;101603.28;5035387;28;20372;-71
2022/01/26 11:47:35;;;;;;;144.15;43.75;;;;;;;0.29;100.00;101592.97;5035376;28;20033;-71
2022/01/26 11:50:21;;;;;;;151.38;45.75;;;;;;;0.33;100.00;101586.09;5034417;28;20044;-70
2022/01/26 11:53:14;;;;;;;160.93;48.55;;;;;;;0.26;100.00;101574.44;5033245;28;20475;-71
2022/01/26 11:55:49;;;;;;;167.32;45.30;;;;;;;0.27;100.00;101571.00;5035258;28;20118;-72
2022/01/26 11:58:32;;;;;;;158.23;45.30;;;;;;;0.39;100.00;101565.25;5034891;28;20035;-72
2022/01/26 12:01:29;;;;;;;160.98;44.25;;;;;;;0.25;100.00;101556.91;5034704;28;20429;-71
2022/01/26 12:04:00;;;;;;;166.20;46.42;;;;;;;0.23;100.00;101548.09;5034632;28;20099;-72
2022/01/26 12:06:36;;;;;;;160.40;42.55;;;;;;;0.27;100.00;101539.47;5034578;28;20419;-72
2022/01/26 12:09:05;;;;;;;166.43;46.17;;;;;;;0.27;100.00;101528.97;5033073;22;20048;-72
2022/01/26 12:11:30;;;;;;;175.63;48.58;;;;;;;0.22;100.00;101530.53;5015232;28;20026;-72
2022/01/26 12:14:07;;;;;;;167.10;47.45;;;;;;;0.20;100.00;101527.88;5015185;28;20479;-72
2022/01/26 12:16:37;;;;;;;160.93;46.47;;;;;;;0.28;100.00;101525.50;5015362;28;20491;-72
2022/01/26 12:32:56;;;;;;;178.93;47.15;;;;;;;0.28;100.00;101530.75;5015218;28;20386;-74
2022/01/26 12:38:18;;;;;;;182.73;47.03;;;;;;;0.26;100.00;101521.91;5015120;28;20026;-74
2022/01/26 12:43:36;;;;;;;189.30;48.65;;;;;;;0.28;100.00;101536.00;5014973;28;20084;-74
2022/01/26 12:46:07;;;;;;;197.70;50.33;;;;;;;0.24;100.00;101534.09;5014907;28;20036;-75
2022/01/26 12:48:34;;;;;;;182.48;49.78;;;;;;;0.36;100.00;101517.84;5014257;28;20104;-74
2022/01/26 12:51:02;;;;;;;190.30;50.15;;;;;;;0.36;100.00;101511.72;5014486;28;20061;-74
2022/01/26 12:53:29;;;;;;;168.13;46.70;;;;;;;0.37;100.00;101505.59;5014544;28;20021;-74
2022/01/26 12:55:59;;;;;;;202.00;50.95;;;;;;;0.37;100.00;101508.22;5014530;28;20029;-74
2022/01/26 12:58:30;;;;;;;200.00;47.42;;;;;;;0.39;100.00;101493.38;5014797;28;20018;-74
2022/01/26 13:01:06;;;;;;;189.38;50.90;;;;;;;0.36;100.00;101485.44;5014674;28;20024;-74
2022/01/26 13:03:40;;;;;;;192.65;50.72;;;;;;;0.43;100.00;101484.78;5014598;28;20025;-74
2022/01/26 13:06:14;;;;;;;184.65;49.88;;;;;;;0.39;100.00;101477.63;5014607;28;20073;-74